Time;durP1;ratioP1;P1;durP2;ratioP2;P2;SDS_P1;SDS_P2;PMS_P1;PMS_P2;Temp;Humidity;BMP_temperature;BMP_pressure;BME280_temperature;BME280_humidity;BME280_pressure;Samples;Min_cycle;Max_cycle;Signal;HPM_P1;HPM_P2
2021/04/22 00:00:23;;;;;;;10.60;7.68;;;9.30;68.90;;;;;;5055557;28;20378;-80
2021/04/22 00:02:50;;;;;;;13.15;8.73;;;9.30;68.90;;;;;;5073285;28;20366;-80
2021/04/22 00:05:36;;;;;;;11.90;8.40;;;9.30;68.70;;;;;;5073747;28;20040;-81
2021/04/22 00:08:07;;;;;;;12.02;8.75;;;9.30;68.70;;;;;;5073388;28;20036;-81
2021/04/22 00:10:56;;;;;;;11.43;8.15;;;9.40;68.70;;;;;;5071917;28;20390;-80
2021/04/22 00:13:25;;;;;;;12.77;8.45;;;9.30;68.50;;;;;;5073530;28;20115;-80
2021/04/22 00:15:52;;;;;;;14.23;8.80;;;9.40;68.40;;;;;;5073510;28;20032;-80
2021/04/22 00:18:18;;;;;;;12.80;8.02;;;9.40;68.30;;;;;;5073823;28;20032;-80
2021/04/22 00:20:44;;;;;;;14.75;9.25;;;9.40;68.20;;;;;;5072921;28;20024;-81
2021/04/22 00:23:12;;;;;;;14.15;9.70;;;9.30;68.20;;;;;;5073083;28;20086;-81
2021/04/22 00:25:41;;;;;;;12.65;9.25;;;9.40;68.20;;;;;;5073342;28;20425;-80
2021/04/22 00:28:07;;;;;;;16.27;10.57;;;9.30;68.20;;;;;;5073131;28;20064;-82
2021/04/22 00:30:33;;;;;;;13.80;9.95;;;9.30;68.20;;;;;;5073444;28;20031;-81
2021/04/22 00:32:59;;;;;;;16.08;10.40;;;9.20;68.20;;;;;;5072084;28;20537;-81
2021/04/22 00:35:25;;;;;;;15.35;10.48;;;9.20;68.40;;;;;;5072922;28;20108;-81
2021/04/22 00:37:51;;;;;;;17.15;11.10;;;9.20;68.50;;;;;;5073414;28;20060;-81
2021/04/22 00:40:20;;;;;;;17.42;11.40;;;9.10;68.50;;;;;;5075812;28;20035;-80
2021/04/22 00:42:46;;;;;;;17.83;11.07;;;9.10;68.60;;;;;;5077618;28;20023;-81
2021/04/22 00:45:12;;;;;;;16.98;10.90;;;9.10;68.60;;;;;;5077445;28;20374;-81
2021/04/22 00:47:38;;;;;;;18.27;11.93;;;9.00;68.60;;;;;;5077165;28;20024;-80
2021/04/22 00:50:05;;;;;;;20.17;11.80;;;9.00;68.80;;;;;;5077572;28;20037;-80
2021/04/22 00:52:31;;;;;;;19.67;11.55;;;9.00;68.80;;;;;;5077407;28;20366;-80
2021/04/22 00:54:57;;;;;;;16.02;11.45;;;9.00;68.90;;;;;;5077419;28;20027;-80
2021/04/22 00:57:23;;;;;;;20.05;11.20;;;9.00;68.90;;;;;;5077176;28;20021;-81
2021/04/22 00:59:48;;;;;;;17.75;11.38;;;9.00;68.80;;;;;;5077028;28;20024;-80
2021/04/22 01:02:16;;;;;;;16.50;11.07;;;9.00;68.90;;;;;;5076947;28;20485;-81
2021/04/22 01:04:48;;;;;;;18.88;11.63;;;8.90;68.80;;;;;;5077519;28;20398;-81
2021/04/22 01:07:14;;;;;;;15.77;10.27;;;8.90;68.90;;;;;;5076400;28;20038;-81
2021/04/22 01:09:41;;;;;;;17.95;11.10;;;8.90;68.90;;;;;;5076539;28;20082;-80
2021/04/22 01:12:07;;;;;;;16.45;9.90;;;8.90;68.90;;;;;;5076758;28;20089;-80
2021/04/22 01:14:33;;;;;;;18.13;10.98;;;8.90;68.90;;;;;;5076299;28;20029;-80
2021/04/22 01:16:59;;;;;;;17.80;10.50;;;8.90;68.90;;;;;;5077033;28;20099;-80
2021/04/22 01:19:25;;;;;;;21.02;12.23;;;8.90;68.90;;;;;;5076717;28;20028;-80
2021/04/22 01:21:52;;;;;;;27.83;14.00;;;8.80;69.50;;;;;;5076951;28;20081;-80
2021/04/22 01:24:17;;;;;;;27.25;14.35;;;8.80;68.80;;;;;;5076916;28;20028;-81
2021/04/22 01:26:43;;;;;;;23.55;13.65;;;8.80;68.90;;;;;;5077043;28;20492;-79
2021/04/22 01:29:09;;;;;;;25.10;13.50;;;8.80;68.90;;;;;;5076498;28;20041;-80
2021/04/22 01:31:35;;;;;;;25.27;13.93;;;8.80;68.90;;;;;;5076529;28;20024;-80
2021/04/22 01:34:03;;;;;;;20.95;13.38;;;8.80;68.90;;;;;;5077265;28;20029;-80
2021/04/22 01:36:34;;;;;;;21.20;12.48;;;8.80;69.00;;;;;;5076523;28;20066;-79
2021/04/22 01:39:01;;;;;;;17.98;12.00;;;8.80;69.00;;;;;;5076415;28;20035;-80
2021/04/22 01:41:28;;;;;;;20.88;13.15;;;8.80;69.00;;;;;;5075993;28;20078;-80
2021/04/22 01:43:54;;;;;;;21.88;12.95;;;8.70;69.00;;;;;;5075576;28;20025;-80
2021/04/22 01:46:20;;;;;;;20.85;12.57;;;8.70;69.10;;;;;;5076069;28;20023;-81
2021/04/22 01:48:45;;;;;;;20.38;12.48;;;8.70;69.10;;;;;;5074973;28;20028;-83
2021/04/22 01:51:11;;;;;;;17.15;12.27;;;8.70;69.30;;;;;;5075937;28;20470;-80
2021/04/22 01:53:37;;;;;;;17.55;12.75;;;8.60;69.30;;;;;;5076222;28;20021;-79
2021/04/22 01:56:03;;;;;;;18.25;12.20;;;8.60;69.40;;;;;;5075737;28;20085;-79
2021/04/22 01:58:28;;;;;;;19.05;12.48;;;8.60;69.50;;;;;;5076034;28;20029;-80
2021/04/22 02:00:56;;;;;;;18.70;12.05;;;8.60;69.70;;;;;;5075715;28;20168;-80
2021/04/22 02:03:24;;;;;;;18.10;11.73;;;8.50;69.80;;;;;;5075696;28;20048;-81
2021/04/22 02:05:50;;;;;;;18.52;11.82;;;8.50;70.00;;;;;;5075828;28;20032;-80
2021/04/22 02:08:16;;;;;;;18.95;12.10;;;8.40;70.00;;;;;;5075676;28;20042;-81
2021/04/22 02:10:43;;;;;;;18.50;11.52;;;8.40;70.10;;;;;;5075587;28;20095;-80
2021/04/22 02:13:11;;;;;;;19.38;11.90;;;8.40;70.30;;;;;;5075854;28;20024;-80
2021/04/22 02:15:37;;;;;;;18.27;12.73;;;8.40;70.40;;;;;;5075802;28;20028;-80
2021/04/22 02:18:03;;;;;;;19.58;11.90;;;8.30;70.40;;;;;;5075536;28;20032;-80
2021/04/22 02:20:29;;;;;;;18.58;12.05;;;8.30;70.40;;;;;;5075533;28;20381;-80
2021/04/22 02:22:55;;;;;;;18.63;10.60;;;8.30;70.50;;;;;;5075034;28;20020;-80
2021/04/22 02:25:26;;;;;;;17.17;11.90;;;8.30;70.50;;;;;;5075057;28;20082;-81
2021/04/22 02:27:53;;;;;;;19.45;12.48;;;8.30;70.60;;;;;;5075284;28;20031;-80
2021/04/22 02:30:24;;;;;;;18.70;11.43;;;8.30;70.60;;;;;;5074920;28;20098;-80
2021/04/22 02:32:51;;;;;;;23.55;12.82;;;8.30;70.70;;;;;;5075530;28;20024;-80
2021/04/22 02:35:19;;;;;;;20.48;11.73;;;8.30;70.80;;;;;;5075572;28;20099;-81
2021/04/22 02:37:45;;;;;;;16.27;11.25;;;8.30;70.80;;;;;;5074443;28;20175;-80
2021/04/22 02:40:16;;;;;;;20.33;12.13;;;8.30;70.80;;;;;;5075213;28;20032;-80
2021/04/22 02:42:43;;;;;;;18.42;12.65;;;8.30;70.90;;;;;;5075119;28;20036;-80
2021/04/22 02:45:18;;;;;;;19.40;12.95;;;8.30;70.90;;;;;;5075324;28;20111;-80
2021/04/22 02:47:44;;;;;;;16.90;12.65;;;8.30;71.00;;;;;;5074611;28;20032;-81
2021/04/22 02:50:13;;;;;;;18.33;12.23;;;8.30;70.90;;;;;;5074239;28;20035;-80
2021/04/22 02:52:38;;;;;;;18.40;13.30;;;8.30;71.70;;;;;;5074253;28;20024;-81
2021/04/22 02:55:05;;;;;;;17.75;12.63;;;8.30;71.00;;;;;;5073994;28;20367;-82
2021/04/22 02:57:31;;;;;;;22.73;14.75;;;8.40;71.00;;;;;;5074301;28;20052;-82
2021/04/22 02:59:57;;;;;;;24.75;15.93;;;8.40;71.10;;;;;;5074967;28;20092;-81
2021/04/22 03:02:23;;;;;;;33.10;17.45;;;8.40;71.10;;;;;;5073651;28;20059;-81
2021/04/22 03:04:49;;;;;;;25.48;15.38;;;8.50;71.10;;;;;;5074271;28;20526;-81
2021/04/22 03:07:15;;;;;;;22.85;14.45;;;8.40;71.10;;;;;;5074622;28;20028;-81
2021/04/22 03:09:40;;;;;;;20.40;12.43;;;8.50;71.10;;;;;;5074321;28;20036;-81
2021/04/22 03:12:07;;;;;;;19.42;12.10;;;8.50;71.10;;;;;;5073440;28;20024;-81
2021/04/22 03:14:33;;;;;;;16.50;11.20;;;8.60;71.10;;;;;;5074526;28;20037;-82
2021/04/22 03:16:58;;;;;;;17.73;12.30;;;8.60;71.00;;;;;;5074384;28;20028;-81
2021/04/22 03:19:24;;;;;;;16.08;11.00;;;8.70;71.00;;;;;;5074029;28;20075;-81
2021/04/22 03:21:50;;;;;;;16.83;10.68;;;8.70;70.90;;;;;;5074131;28;20033;-80
2021/04/22 03:24:16;;;;;;;15.50;11.13;;;8.80;70.90;;;;;;5074802;28;20056;-81
2021/04/22 03:26:41;;;;;;;17.88;10.85;;;8.80;71.30;;;;;;5075353;28;20035;-81
2021/04/22 03:29:07;;;;;;;17.70;11.90;;;8.90;70.60;;;;;;5077906;28;20063;-80
2021/04/22 03:31:33;;;;;;;22.83;13.10;;;8.90;70.50;;;;;;5075177;28;20052;-80
2021/04/22 03:33:58;;;;;;;18.73;12.23;;;8.80;70.50;;;;;;5073874;28;20035;-81
2021/04/22 03:36:24;;;;;;;21.08;12.35;;;8.90;70.50;;;;;;5073077;28;20025;-82
2021/04/22 03:38:50;;;;;;;18.13;11.98;;;8.80;70.50;;;;;;5073906;28;20059;-81
2021/04/22 03:41:16;;;;;;;19.05;12.93;;;8.80;70.60;;;;;;5074021;28;20025;-83
2021/04/22 03:43:42;;;;;;;27.63;14.15;;;8.80;70.70;;;;;;5073633;28;20043;-82
2021/04/22 03:46:07;;;;;;;41.72;18.77;;;8.80;70.80;;;;;;5073566;28;20021;-80
2021/04/22 03:48:33;;;;;;;48.47;20.55;;;8.80;70.90;;;;;;5073196;28;20116;-82
2021/04/22 03:50:59;;;;;;;42.05;20.30;;;8.80;71.00;;;;;;5073791;28;20029;-81
2021/04/22 03:53:25;;;;;;;23.40;14.90;;;8.80;71.10;;;;;;5072105;28;20096;-81
2021/04/22 03:55:52;;;;;;;22.75;14.27;;;8.80;71.10;;;;;;5073581;28;20115;-81
2021/04/22 03:58:18;;;;;;;22.98;14.23;;;8.80;71.20;;;;;;5073419;28;20028;-83
2021/04/22 04:00:44;;;;;;;22.73;13.07;;;8.80;71.20;;;;;;5073161;28;20032;-80
2021/04/22 04:03:09;;;;;;;23.48;13.48;;;8.80;71.30;;;;;;5073148;28;20027;-80
2021/04/22 04:05:35;;;;;;;20.70;13.35;;;8.80;71.50;;;;;;5073155;28;20126;-81
2021/04/22 04:08:01;;;;;;;24.10;13.02;;;8.80;71.70;;;;;;5073226;28;20117;-81
2021/04/22 04:10:27;;;;;;;26.23;13.77;;;8.90;71.80;;;;;;5071975;28;20471;-80
2021/04/22 04:12:52;;;;;;;22.20;13.38;;;8.90;71.80;;;;;;5073903;28;20514;-81
2021/04/22 04:15:18;;;;;;;22.90;12.68;;;8.90;71.90;;;;;;5077614;28;20032;-81
2021/04/22 04:17:44;;;;;;;18.75;11.40;;;9.00;72.00;;;;;;5077457;28;20040;-81
2021/04/22 04:20:13;;;;;;;27.92;11.85;;;9.10;72.10;;;;;;5077153;28;20032;-82
2021/04/22 04:22:38;;;;;;;17.98;11.07;;;9.10;72.00;;;;;;5076826;28;20029;-80
2021/04/22 04:25:06;;;;;;;14.27;9.73;;;9.20;72.00;;;;;;5077052;28;20038;-80
2021/04/22 04:27:32;;;;;;;14.93;9.43;;;9.20;71.90;;;;;;5076529;28;20028;-81
2021/04/22 04:29:57;;;;;;;18.35;10.18;;;9.30;71.90;;;;;;5076640;28;20024;-80
2021/04/22 04:32:24;;;;;;;17.08;11.23;;;9.30;71.90;;;;;;5076753;28;20064;-81
2021/04/22 04:34:49;;;;;;;39.83;17.13;;;9.40;71.90;;;;;;5076972;28;20025;-80
2021/04/22 04:37:15;;;;;;;22.65;11.82;;;9.40;71.90;;;;;;5077060;28;20077;-80
2021/04/22 04:39:41;;;;;;;15.73;10.55;;;9.50;71.90;;;;;;5077006;28;20037;-82
2021/04/22 04:42:07;;;;;;;16.98;11.75;;;9.50;71.80;;;;;;5076897;28;20362;-81
2021/04/22 04:44:34;;;;;;;16.90;11.98;;;9.60;71.80;;;;;;5076531;28;20047;-80
2021/04/22 04:47:00;;;;;;;19.70;11.70;;;9.60;71.70;;;;;;5076767;28;20052;-82
2021/04/22 04:49:26;;;;;;;27.00;15.15;;;9.70;71.60;;;;;;5076145;28;20109;-81
2021/04/22 04:51:51;;;;;;;15.85;10.43;;;9.70;71.60;;;;;;5076738;28;20028;-81
2021/04/22 04:54:17;;;;;;;16.75;10.90;;;9.80;71.50;;;;;;5076454;28;20218;-82
2021/04/22 04:56:43;;;;;;;16.92;11.10;;;9.80;71.40;;;;;;5076471;28;20328;-81
2021/04/22 04:59:09;;;;;;;14.45;10.55;;;9.90;71.30;;;;;;5076319;28;20446;-81
2021/04/22 05:01:35;;;;;;;33.90;17.05;;;10.00;71.30;;;;;;5075928;28;20090;-81
2021/04/22 05:04:01;;;;;;;15.82;10.75;;;10.00;71.20;;;;;;5076192;28;20467;-80
2021/04/22 05:06:26;;;;;;;15.60;10.88;;;10.10;71.20;;;;;;5076337;28;20032;-82
2021/04/22 05:08:52;;;;;;;18.42;10.80;;;10.20;71.10;;;;;;5074675;28;20033;-81
2021/04/22 05:11:18;;;;;;;16.55;11.45;;;10.20;71.00;;;;;;5075468;28;20048;-80
2021/04/22 05:13:44;;;;;;;13.30;10.32;;;10.30;71.00;;;;;;5075907;28;20025;-82
2021/04/22 05:16:10;;;;;;;17.63;10.63;;;10.40;70.90;;;;;;5075835;28;20031;-80
2021/04/22 05:18:35;;;;;;;18.48;11.82;;;10.50;71.00;;;;;;5075836;28;20501;-81
2021/04/22 05:21:01;;;;;;;14.88;11.18;;;10.60;71.00;;;;;;5076039;28;20047;-80
2021/04/22 05:23:27;;;;;;;16.27;11.15;;;10.70;70.80;;;;;;5075549;28;20055;-81
2021/04/22 05:25:54;;;;;;;16.27;10.77;;;10.70;70.60;;;;;;5075276;28;20063;-80
2021/04/22 05:28:21;;;;;;;14.23;10.57;;;10.80;70.40;;;;;;5074658;28;20060;-80
2021/04/22 05:30:47;;;;;;;19.42;11.20;;;10.90;70.30;;;;;;5075674;28;20090;-82
2021/04/22 05:33:13;;;;;;;15.98;11.18;;;10.90;70.10;;;;;;5074273;28;20474;-81
2021/04/22 05:35:40;;;;;;;15.20;11.05;;;11.00;70.00;;;;;;5075418;28;20086;-80
2021/04/22 05:38:06;;;;;;;17.42;11.20;;;11.00;70.00;;;;;;5075783;28;20465;-81
2021/04/22 05:40:32;;;;;;;18.42;11.88;;;11.10;69.90;;;;;;5075501;28;20025;-82
2021/04/22 05:42:58;;;;;;;27.42;14.95;;;11.10;69.70;;;;;;5075612;28;20074;-81
2021/04/22 05:45:24;;;;;;;14.23;10.73;;;11.20;69.70;;;;;;5073593;28;20029;-80
2021/04/22 05:47:50;;;;;;;15.75;10.73;;;11.30;69.50;;;;;;5074749;28;20120;-80
2021/04/22 05:50:18;;;;;;;15.57;11.13;;;11.30;69.40;;;;;;5073880;28;20098;-81
2021/04/22 05:52:45;;;;;;;20.77;11.65;;;11.40;69.60;;;;;;5073639;28;20031;-81
2021/04/22 05:55:12;;;;;;;17.30;11.00;;;11.50;69.50;;;;;;5074878;28;20025;-81
2021/04/22 05:57:37;;;;;;;16.55;11.50;;;11.60;69.40;;;;;;5075011;28;20021;-82
2021/04/22 06:00:10;;;;;;;18.98;12.05;;;11.60;69.30;;;;;;5075804;28;20223;-80
2021/04/22 06:02:35;;;;;;;17.67;11.65;;;11.70;69.20;;;;;;5074897;28;20031;-82
2021/04/22 06:05:01;;;;;;;15.55;10.90;;;11.80;68.90;;;;;;5074799;28;20100;-81
2021/04/22 06:07:27;;;;;;;26.45;13.30;;;11.90;68.70;;;;;;5075019;28;20418;-82
2021/04/22 06:09:53;;;;;;;19.20;12.30;;;12.00;68.80;;;;;;5075072;28;20028;-81
2021/04/22 06:12:18;;;;;;;23.92;14.10;;;12.20;68.30;;;;;;5074590;28;20024;-83
2021/04/22 06:14:44;;;;;;;18.33;12.48;;;12.30;68.10;;;;;;5074611;28;20029;-82
2021/04/22 06:17:10;;;;;;;17.98;12.95;;;12.30;67.90;;;;;;5074740;28;20025;-81
2021/04/22 06:19:36;;;;;;;20.02;12.48;;;12.40;67.50;;;;;;5075038;28;20032;-81
2021/04/22 06:22:02;;;;;;;22.23;14.50;;;12.50;67.20;;;;;;5074941;28;20037;-80
2021/04/22 06:24:27;;;;;;;21.90;13.80;;;12.60;67.20;;;;;;5073558;28;20029;-81
2021/04/22 06:26:53;;;;;;;13.98;11.88;;;12.70;67.00;;;;;;5074393;28;20024;-81
2021/04/22 06:29:19;;;;;;;21.83;11.98;;;12.90;66.80;;;;;;5073311;28;20059;-82
2021/04/22 06:31:47;;;;;;;18.77;13.23;;;12.90;66.70;;;;;;5074122;28;20021;-82
2021/04/22 06:34:13;;;;;;;21.08;12.35;;;13.00;66.60;;;;;;5074713;28;20385;-82
2021/04/22 06:36:39;;;;;;;23.98;14.20;;;13.10;66.40;;;;;;5071265;28;20310;-79
2021/04/22 06:39:05;;;;;;;19.50;13.35;;;13.10;66.40;;;;;;5073140;28;20359;-81
2021/04/22 06:41:31;;;;;;;24.92;12.50;;;13.30;66.40;;;;;;5074401;28;20050;-82
2021/04/22 06:43:57;;;;;;;15.90;11.77;;;13.40;66.30;;;;;;5072988;28;20475;-81
2021/04/22 06:46:22;;;;;;;15.38;11.85;;;13.50;65.90;;;;;;5073086;28;20461;-81
2021/04/22 06:48:51;;;;;;;14.73;11.35;;;13.60;65.50;;;;;;5074120;28;20060;-83
2021/04/22 06:51:17;;;;;;;17.30;11.48;;;13.70;65.00;;;;;;5073917;28;20024;-81
2021/04/22 06:53:42;;;;;;;15.55;10.65;;;13.80;64.40;;;;;;5073744;28;20065;-82
2021/04/22 06:56:08;;;;;;;18.20;11.52;;;13.90;64.70;;;;;;5074443;28;20036;-80
2021/04/22 06:58:34;;;;;;;16.42;10.70;;;14.00;64.00;;;;;;5074071;28;20032;-82
2021/04/22 07:01:00;;;;;;;14.77;10.60;;;14.10;63.80;;;;;;5074065;28;20032;-81
2021/04/22 07:03:25;;;;;;;12.52;9.75;;;14.30;64.10;;;;;;5072656;28;20063;-80
2021/04/22 07:05:51;;;;;;;14.88;11.40;;;14.40;62.70;;;;;;5072238;28;20029;-80
2021/04/22 07:08:17;;;;;;;16.60;11.38;;;14.60;62.10;;;;;;5073906;28;20036;-81
2021/04/22 07:10:43;;;;;;;14.45;10.27;;;14.70;61.80;;;;;;5073927;28;20029;-81
2021/04/22 07:13:10;;;;;;;17.42;10.45;;;14.80;61.20;;;;;;5074060;28;20056;-81
2021/04/22 07:15:36;;;;;;;16.00;9.55;;;14.90;61.10;;;;;;5073930;28;20024;-81
2021/04/22 07:18:03;;;;;;;18.00;9.00;;;15.10;60.40;;;;;;5073740;28;20028;-81
2021/04/22 07:20:29;;;;;;;16.13;9.63;;;15.20;59.60;;;;;;5073783;28;20374;-81
2021/04/22 07:22:56;;;;;;;15.45;8.75;;;15.40;58.90;;;;;;5073701;28;20025;-81
2021/04/22 07:25:24;;;;;;;13.48;9.55;;;15.50;58.70;;;;;;5073067;28;20135;-81
2021/04/22 07:27:50;;;;;;;15.65;10.45;;;15.70;58.40;;;;;;5072266;28;20031;-82
2021/04/22 07:30:17;;;;;;;11.82;8.82;;;15.80;58.10;;;;;;5073254;28;20126;-81
2021/04/22 07:32:44;;;;;;;10.20;7.90;;;15.90;58.30;;;;;;5073108;28;20033;-81
2021/04/22 07:35:11;;;;;;;14.43;7.93;;;16.00;56.60;;;;;;5072425;28;20036;-81
2021/04/22 07:37:38;;;;;;;12.43;7.95;;;16.10;56.30;;;;;;5070987;28;20072;-81
2021/04/22 07:40:07;;;;;;;13.02;7.82;;;16.20;56.00;;;;;;5072505;28;20046;-82
2021/04/22 07:42:32;;;;;;;12.88;7.78;;;16.30;55.80;;;;;;5072276;28;20540;-81
2021/04/22 07:44:58;;;;;;;9.50;7.63;;;16.50;55.10;;;;;;5072508;28;20091;-82
2021/04/22 07:47:24;;;;;;;12.02;8.10;;;16.70;54.60;;;;;;5071089;28;20082;-80
2021/04/22 07:49:49;;;;;;;10.65;6.18;;;16.80;54.20;;;;;;5071496;28;20237;-82
2021/04/22 07:52:15;;;;;;;11.50;6.97;;;16.90;53.50;;;;;;5057185;28;20458;-82
2021/04/22 07:54:42;;;;;;;13.10;6.75;;;17.00;53.00;;;;;;5053211;28;20025;-82
2021/04/22 07:57:09;;;;;;;10.88;7.30;;;17.20;52.50;;;;;;5053077;28;20471;-81
2021/04/22 07:59:34;;;;;;;14.02;7.03;;;17.40;52.30;;;;;;5053444;28;20035;-81
2021/04/22 08:02:00;;;;;;;9.45;6.32;;;17.60;51.90;;;;;;5053125;28;20037;-81
2021/04/22 08:04:26;;;;;;;9.82;6.10;;;17.80;51.60;;;;;;5059350;28;20382;-80
2021/04/22 08:06:52;;;;;;;9.55;6.40;;;18.00;51.20;;;;;;5070892;28;20488;-81
2021/04/22 08:09:17;;;;;;;9.18;6.25;;;18.30;50.70;;;;;;5071888;28;20115;-81
2021/04/22 08:11:43;;;;;;;9.15;5.93;;;18.50;50.00;;;;;;5071908;28;20458;-81
2021/04/22 08:14:09;;;;;;;12.27;6.78;;;18.70;49.70;;;;;;5071968;28;20386;-81
2021/04/22 08:16:35;;;;;;;7.05;5.50;;;19.00;48.70;;;;;;5071923;28;20025;-81
2021/04/22 08:19:03;;;;;;;15.15;6.18;;;19.20;47.50;;;;;;5071765;28;20041;-81
2021/04/22 08:21:30;;;;;;;7.38;5.70;;;19.30;46.40;;;;;;5071818;28;20017;-81
2021/04/22 08:23:56;;;;;;;7.72;5.82;;;19.50;46.10;;;;;;5071260;28;20111;-82
2021/04/22 08:26:23;;;;;;;5.80;5.18;;;19.70;45.80;;;;;;5071690;28;20092;-81
2021/04/22 08:28:49;;;;;;;9.65;5.30;;;19.90;45.40;;;;;;5071193;28;20316;-81
2021/04/22 08:31:23;;;;;;;7.88;5.20;;;20.10;45.00;;;;;;5071688;28;20031;-81
2021/04/22 08:33:52;;;;;;;10.88;4.90;;;20.40;43.50;;;;;;5071769;28;20031;-82
2021/04/22 08:36:20;;;;;;;9.27;4.95;;;20.50;42.70;;;;;;5067873;28;20025;-81
2021/04/22 08:38:48;;;;;;;16.27;5.10;;;20.60;42.60;;;;;;5070876;28;20464;-81
2021/04/22 08:41:14;;;;;;;5.68;4.38;;;21.00;42.40;;;;;;5071614;28;20085;-82
2021/04/22 08:43:42;;;;;;;5.97;5.07;;;21.50;41.70;;;;;;5071470;28;20472;-81
2021/04/22 08:46:08;;;;;;;5.82;5.03;;;21.90;41.30;;;;;;5071313;28;20085;-81
2021/04/22 08:48:36;;;;;;;7.80;5.60;;;22.50;41.30;;;;;;5070111;28;20111;-82
2021/04/22 08:51:03;;;;;;;8.93;5.50;;;22.90;40.60;;;;;;5070319;28;20474;-82
2021/04/22 08:53:33;;;;;;;8.82;5.57;;;23.00;40.20;;;;;;5071756;28;20021;-81
2021/04/22 08:55:59;;;;;;;8.07;5.03;;;23.30;40.20;;;;;;5069506;28;20032;-81
2021/04/22 08:58:26;;;;;;;6.95;4.95;;;24.00;39.60;;;;;;5072440;28;20046;-81
2021/04/22 09:00:56;;;;;;;7.47;5.68;;;24.40;37.80;;;;;;5074244;28;20024;-80
2021/04/22 09:03:21;;;;;;;8.48;5.63;;;24.00;37.40;;;;;;5076736;28;20043;-81
2021/04/22 09:05:48;;;;;;;5.90;5.03;;;23.40;37.70;;;;;;5076082;28;20025;-81
2021/04/22 09:08:15;;;;;;;5.25;4.75;;;22.90;38.00;;;;;;5076093;28;20393;-81
2021/04/22 09:10:41;;;;;;;6.70;4.35;;;22.40;38.10;;;;;;5076032;28;20033;-81
2021/04/22 09:13:15;;;;;;;5.90;4.95;;;22.00;38.60;;;;;;5075661;28;20028;-81
2021/04/22 09:15:45;;;;;;;9.27;4.55;;;22.40;38.60;;;;;;5059953;28;20032;-82
2021/04/22 09:18:17;;;;;;;6.13;4.90;;;22.50;37.90;;;;;;5073470;28;20033;-81
2021/04/22 09:20:52;;;;;;;6.90;4.60;;;22.30;37.60;;;;;;5075379;28;20020;-81
2021/04/22 09:23:22;;;;;;;5.82;5.03;;;21.90;37.50;;;;;;5075497;28;20382;-81
2021/04/22 09:26:14;;;;;;;5.25;4.68;;;21.60;37.80;;;;;;5075669;28;20028;-81
2021/04/22 09:28:44;;;;;;;6.53;4.53;;;21.60;38.30;;;;;;5073010;28;20119;-81
2021/04/22 09:31:23;;;;;;;6.90;4.80;;;22.50;37.80;;;;;;5073220;28;20577;-81
2021/04/22 09:34:05;;;;;;;6.18;4.22;;;22.60;37.00;;;;;;5072755;28;20052;-82
2021/04/22 09:36:53;;;;;;;5.50;4.50;;;22.40;36.50;;;;;;5071946;28;20508;-81
2021/04/22 09:39:25;;;;;;;5.22;4.43;;;22.00;36.80;;;;;;5074267;28;20029;-81
2021/04/22 09:41:54;;;;;;;5.93;4.55;;;21.90;37.20;;;;;;5072573;28;20027;-81
2021/04/22 09:44:20;;;;;;;5.15;4.00;;;21.70;37.40;;;;;;5075743;28;20032;-82
2021/04/22 09:46:48;;;;;;;5.30;4.50;;;21.50;37.70;;;;;;5075568;28;20031;-81
2021/04/22 09:49:20;;;;;;;6.60;4.50;;;21.30;38.00;;;;;;5075805;28;20151;-81
2021/04/22 09:51:48;;;;;;;5.72;3.95;;;21.10;38.20;;;;;;5075747;28;20025;-81
2021/04/22 09:54:22;;;;;;;5.07;4.30;;;20.80;39.00;;;;;;5072686;28;20052;-81
2021/04/22 09:56:56;;;;;;;5.95;4.40;;;20.50;38.80;;;;;;5074293;28;20440;-81
2021/04/22 09:59:24;;;;;;;7.97;4.77;;;20.30;40.00;;;;;;5073660;28;20028;-82
2021/04/22 10:02:08;;;;;;;6.15;4.78;;;20.20;40.80;;;;;;5074562;28;20032;-82
2021/04/22 10:04:36;;;;;;;6.65;5.15;;;20.30;40.70;;;;;;5074630;28;20056;-81
2021/04/22 10:07:03;;;;;;;5.85;4.60;;;20.50;40.20;;;;;;5074557;28;20073;-81
2021/04/22 10:09:30;;;;;;;6.75;4.65;;;20.60;39.50;;;;;;5074813;28;20036;-83
2021/04/22 10:11:56;;;;;;;5.35;4.43;;;21.10;39.70;;;;;;5072036;28;20017;-80
2021/04/22 10:14:34;;;;;;;7.00;4.03;;;22.50;39.50;;;;;;5074318;28;20351;-83
2021/04/22 10:17:11;;;;;;;6.35;4.97;;;24.30;37.30;;;;;;5073744;28;20025;-82
2021/04/22 10:19:37;;;;;;;6.13;4.15;;;25.90;36.50;;;;;;5073034;28;20121;-82
2021/04/22 10:22:02;;;;;;;6.63;5.10;;;27.50;35.40;;;;;;5074474;28;20091;-83
2021/04/22 10:24:28;;;;;;;6.88;5.30;;;27.90;33.50;;;;;;5075064;28;20017;-82
2021/04/22 10:26:59;;;;;;;5.57;4.18;;;27.30;32.50;;;;;;5074810;28;20024;-82
2021/04/22 10:29:25;;;;;;;6.38;4.40;;;27.40;32.60;;;;;;5074895;28;20024;-82
2021/04/22 10:31:51;;;;;;;4.88;4.03;;;27.70;32.60;;;;;;5075141;28;20083;-82
2021/04/22 10:34:18;;;;;;;5.50;3.97;;;28.30;32.20;;;;;;5074340;28;20031;-82
2021/04/22 10:36:44;;;;;;;4.35;3.95;;;29.00;31.30;;;;;;5072635;28;20020;-82
2021/04/22 10:39:10;;;;;;;10.32;3.53;;;29.70;30.90;;;;;;5074170;28;20040;-82
2021/04/22 10:41:37;;;;;;;6.57;4.10;;;29.80;30.00;;;;;;5074247;28;20016;-83
2021/04/22 10:44:04;;;;;;;5.18;4.50;;;29.00;29.50;;;;;;5073803;28;20056;-83
2021/04/22 10:46:31;;;;;;;4.50;3.80;;;27.80;29.60;;;;;;5073863;28;20017;-82
2021/04/22 10:48:57;;;;;;;7.38;4.40;;;26.70;30.00;;;;;;5074339;28;20060;-82
2021/04/22 10:51:23;;;;;;;4.68;3.80;;;25.80;30.60;;;;;;5074141;28;20105;-81
2021/04/22 10:53:49;;;;;;;6.22;3.95;;;25.20;31.20;;;;;;5073104;28;20036;-82
2021/04/22 10:56:25;;;;;;;4.75;4.32;;;24.80;32.00;;;;;;5073522;28;20028;-83
2021/04/22 10:58:51;;;;;;;6.22;4.30;;;25.40;32.50;;;;;;5073643;28;20107;-81
2021/04/22 11:01:17;;;;;;;4.75;4.15;;;26.10;32.00;;;;;;5073798;28;20107;-82
2021/04/22 11:03:47;;;;;;;4.38;3.63;;;26.40;31.20;;;;;;5073677;28;20374;-81
2021/04/22 11:06:17;;;;;;;6.57;3.65;;;26.20;30.90;;;;;;5071055;28;20036;-81
2021/04/22 11:08:54;;;;;;;4.63;3.60;;;26.80;31.30;;;;;;5073588;28;20032;-81
2021/04/22 11:11:33;;;;;;;5.03;4.03;;;26.90;30.00;;;;;;5073578;28;20067;-82
2021/04/22 11:14:14;;;;;;;9.55;4.15;;;26.50;30.00;;;;;;5067310;28;20382;-82
2021/04/22 11:16:54;;;;;;;4.32;3.90;;;25.90;30.10;;;;;;5073814;28;20085;-82
2021/04/22 11:19:25;;;;;;;8.88;4.40;;;25.30;31.00;;;;;;5073678;28;20381;-81
2021/04/22 11:21:56;;;;;;;7.30;4.45;;;24.80;31.60;;;;;;5073556;28;20036;-83
2021/04/22 11:24:43;;;;;;;6.65;4.28;;;25.20;32.60;;;;;;5072773;28;20051;-86
2021/04/22 11:27:10;;;;;;;5.57;4.20;;;26.60;32.20;;;;;;5072822;28;20488;-80
2021/04/22 11:29:48;;;;;;;4.57;4.18;;;27.30;31.50;;;;;;5073776;28;20024;-82
2021/04/22 11:32:32;;;;;;;4.25;3.85;;;27.20;30.70;;;;;;5073078;28;20371;-82
2021/04/22 11:35:10;;;;;;;6.90;3.97;;;26.70;30.20;;;;;;5072408;28;20109;-83
2021/04/22 11:37:45;;;;;;;6.55;4.30;;;25.90;30.50;;;;;;5073248;28;20040;-83
2021/04/22 11:40:14;;;;;;;4.88;4.38;;;25.10;31.10;;;;;;5072099;28;20102;-82
2021/04/22 11:42:41;;;;;;;4.55;4.15;;;24.70;31.80;;;;;;5073151;28;20086;-83
2021/04/22 11:45:09;;;;;;;6.00;4.38;;;24.50;32.00;;;;;;5071938;28;20028;-83
2021/04/22 11:47:36;;;;;;;4.75;3.92;;;24.40;31.80;;;;;;5073330;28;20120;-83
2021/04/22 11:50:05;;;;;;;4.50;4.10;;;25.20;32.10;;;;;;5072811;28;20506;-82
2021/04/22 11:52:42;;;;;;;5.15;3.90;;;26.50;31.80;;;;;;5070150;28;20058;-84
2021/04/22 11:55:21;;;;;;;6.47;3.63;;;27.60;30.70;;;;;;5069681;28;20496;-84
2021/04/22 11:58:14;;;;;;;4.38;3.90;;;28.00;29.60;;;;;;5071390;28;20386;-82
2021/04/22 12:00:51;;;;;;;6.90;3.60;;;27.60;29.30;;;;;;5072810;28;20145;-83
2021/04/22 12:03:34;;;;;;;4.68;3.97;;;26.70;29.30;;;;;;5071039;28;20451;-82
2021/04/22 12:06:02;;;;;;;9.93;3.83;;;25.80;29.80;;;;;;5071791;28;20111;-83
2021/04/22 12:08:32;;;;;;;6.13;4.25;;;25.30;30.40;;;;;;5072950;28;20351;-82
2021/04/22 12:10:59;;;;;;;5.15;3.28;;;25.40;30.80;;;;;;5072791;28;20025;-82
2021/04/22 12:13:27;;;;;;;4.55;3.67;;;26.20;30.30;;;;;;5072895;28;20462;-83
2021/04/22 12:16:00;;;;;;;5.50;3.40;;;27.30;30.00;;;;;;5072620;28;20411;-83
2021/04/22 12:18:31;;;;;;;4.20;3.65;;;28.30;29.40;;;;;;5072486;28;20029;-83
2021/04/22 12:21:06;;;;;;;5.20;3.60;;;28.30;28.70;;;;;;5072625;28;20099;-84
2021/04/22 12:23:33;;;;;;;5.88;3.80;;;27.50;28.60;;;;;;5072657;28;20420;-82
2021/04/22 12:26:17;;;;;;;4.28;3.50;;;26.60;28.80;;;;;;5072536;28;20152;-82
2021/04/22 12:29:00;;;;;;;4.82;3.88;;;25.60;29.40;;;;;;5072757;28;20062;-83
2021/04/22 12:31:33;;;;;;;11.18;4.07;;;24.70;30.00;;;;;;5072758;28;20028;-82
2021/04/22 12:34:20;;;;;;;6.35;3.33;;;24.00;31.10;;;;;;5072688;28;20031;-82
2021/04/22 12:37:05;;;;;;;3.20;2.90;;;23.30;31.90;;;;;;5075682;28;20490;-83
2021/04/22 12:39:42;;;;;;;5.50;3.08;;;22.90;32.10;;;;;;5076887;28;20063;-82
2021/04/22 12:42:23;;;;;;;3.90;3.28;;;22.60;32.50;;;;;;5075207;28;20466;-82